Time;durP1;ratioP1;P1;durP2;ratioP2;P2;SDS_P1;SDS_P2;PMS_P1;PMS_P2;Temp;Humidity;BMP_temperature;BMP_pressure;BME280_temperature;BME280_humidity;BME280_pressure;Samples;Min_cycle;Max_cycle;Signal;HPM_P1;HPM_P2
2022/03/14 00:02:14;;;;;;;8.82;6.80;;;9.60;99.90;;;;;;4979448;28;20042;-81
2022/03/14 00:04:40;;;;;;;10.57;7.07;;;9.60;99.90;;;;;;4995445;28;20396;-81
2022/03/14 00:07:06;;;;;;;8.85;6.55;;;9.50;99.90;;;;;;5011947;28;20054;-81
2022/03/14 00:09:32;;;;;;;9.32;6.90;;;9.50;99.90;;;;;;4996445;28;20042;-81
2022/03/14 00:11:58;;;;;;;9.38;7.15;;;9.50;99.90;;;;;;4998805;28;21095;-81
2022/03/14 00:14:27;;;;;;;10.30;6.97;;;9.50;99.90;;;;;;4969837;28;20041;-82
2022/03/14 00:16:56;;;;;;;8.07;6.80;;;9.50;99.90;;;;;;4996173;28;20046;-81
2022/03/14 00:19:22;;;;;;;9.40;7.30;;;9.50;99.90;;;;;;4993822;28;20562;-81
2022/03/14 00:21:49;;;;;;;10.20;7.93;;;8.50;99.90;;;;;;4964193;28;20085;-81
2022/03/14 00:24:15;;;;;;;9.43;7.53;;;9.60;99.90;;;;;;4978455;28;20038;-80
2022/03/14 00:26:40;;;;;;;8.18;7.18;;;9.60;99.90;;;;;;5010132;28;20049;-81
2022/03/14 00:29:08;;;;;;;11.60;8.13;;;9.60;99.90;;;;;;5010932;28;20499;-81
2022/03/14 00:31:34;;;;;;;9.02;7.93;;;9.60;99.90;;;;;;4993936;28;20058;-81
2022/03/14 00:34:00;;;;;;;12.88;8.32;;;9.60;99.90;;;;;;4995428;28;20116;-81
2022/03/14 00:36:27;;;;;;;9.88;8.05;;;9.60;99.90;;;;;;4964418;28;20782;-81
2022/03/14 00:38:54;;;;;;;10.15;7.55;;;9.60;99.90;;;;;;4996780;28;20089;-81
2022/03/14 00:41:20;;;;;;;10.50;7.72;;;9.50;99.90;;;;;;4993841;28;20092;-81
2022/03/14 00:43:46;;;;;;;10.10;8.18;;;9.50;99.90;;;;;;5000064;28;20042;-81
2022/03/14 00:46:14;;;;;;;10.07;7.95;;;9.50;99.90;;;;;;4993979;28;20069;-81
2022/03/14 00:48:40;;;;;;;9.18;7.53;;;9.50;99.90;;;;;;4979343;28;20496;-81
2022/03/14 00:51:06;;;;;;;10.95;7.57;;;9.40;99.90;;;;;;4994932;28;20046;-82
2022/03/14 00:53:31;;;;;;;11.48;7.88;;;9.40;99.90;;;;;;4993376;28;20060;-81
2022/03/14 00:56:01;;;;;;;10.43;8.38;;;9.30;99.90;;;;;;4981820;28;20487;-81
2022/03/14 00:58:29;;;;;;;10.68;8.00;;;9.30;99.90;;;;;;4999165;28;20132;-81
2022/03/14 01:00:55;;;;;;;10.32;8.48;;;9.30;99.90;;;;;;4967833;28;20046;-81
2022/03/14 01:03:21;;;;;;;11.10;8.10;;;9.20;99.90;;;;;;5011744;28;20141;-81
2022/03/14 01:05:46;;;;;;;10.90;8.65;;;9.20;99.90;;;;;;4981178;28;20135;-81
2022/03/14 01:08:12;;;;;;;8.93;7.57;;;9.10;99.90;;;;;;4981139;28;20469;-81
2022/03/14 01:10:38;;;;;;;9.18;7.78;;;9.10;99.90;;;;;;4997300;28;20054;-81
2022/03/14 01:13:04;;;;;;;9.13;7.18;;;9.00;99.90;;;;;;4980503;28;20052;-81
2022/03/14 01:15:32;;;;;;;11.10;7.50;;;9.00;99.90;;;;;;4970529;28;20052;-82
2022/03/14 01:17:58;;;;;;;9.48;7.38;;;8.90;99.90;;;;;;4997185;28;20058;-81
2022/03/14 01:20:25;;;;;;;9.30;7.53;;;8.80;99.90;;;;;;4994381;28;20545;-81
2022/03/14 01:22:54;;;;;;;10.32;7.47;;;8.80;99.90;;;;;;5013339;28;20109;-82
2022/03/14 01:25:26;;;;;;;7.63;6.70;;;8.80;99.90;;;;;;4994472;28;20402;-81
2022/03/14 01:27:53;;;;;;;8.50;7.20;;;8.70;99.90;;;;;;4992891;28;20073;-82
2022/03/14 01:30:20;;;;;;;10.90;6.68;;;9.20;99.90;;;;;;4996793;28;20089;-82
2022/03/14 01:32:46;;;;;;;9.45;6.93;;;8.60;99.90;;;;;;4991879;28;20046;-82
2022/03/14 01:35:12;;;;;;;8.20;6.68;;;8.60;99.90;;;;;;4992466;28;20038;-82
2022/03/14 01:37:38;;;;;;;8.13;6.43;;;9.00;99.90;;;;;;4978272;28;20049;-82
2022/03/14 01:40:06;;;;;;;9.52;6.57;;;7.50;99.90;;;;;;5016401;28;20064;-82
2022/03/14 01:42:31;;;;;;;7.40;6.30;;;8.50;99.90;;;;;;4993115;28;20145;-82
2022/03/14 01:44:57;;;;;;;7.78;6.55;;;8.40;99.90;;;;;;4993037;28;20603;-81
2022/03/14 01:47:23;;;;;;;7.40;6.30;;;8.40;99.90;;;;;;4976173;28;20077;-81
2022/03/14 01:49:49;;;;;;;8.25;6.30;;;8.40;99.90;;;;;;5000171;28;20074;-82
2022/03/14 01:52:15;;;;;;;8.55;6.38;;;8.30;99.90;;;;;;4992223;28;20081;-82
2022/03/14 01:54:42;;;;;;;7.65;5.97;;;8.30;99.90;;;;;;4992456;28;20310;-81
2022/03/14 01:57:08;;;;;;;8.63;6.95;;;8.30;99.90;;;;;;4984498;28;20105;-82
2022/03/14 01:59:36;;;;;;;7.95;6.72;;;8.30;99.90;;;;;;4999369;28;20041;-82
2022/03/14 02:02:02;;;;;;;8.88;6.75;;;8.30;99.90;;;;;;5009987;28;20117;-81
2022/03/14 02:04:27;;;;;;;7.80;6.13;;;8.30;99.90;;;;;;4965790;28;20125;-81
2022/03/14 02:06:54;;;;;;;7.20;5.70;;;8.30;99.90;;;;;;4968184;28;20057;-81
2022/03/14 02:09:20;;;;;;;7.03;5.60;;;8.20;99.90;;;;;;5012195;28;20042;-82
2022/03/14 02:12:08;;;;;;;8.25;6.20;;;8.20;99.90;;;;;;4984797;28;20093;-81
2022/03/14 02:14:39;;;;;;;8.75;6.32;;;8.20;99.90;;;;;;4998524;28;20133;-82
2022/03/14 02:17:09;;;;;;;8.10;6.15;;;8.20;99.90;;;;;;4984344;28;20054;-82
2022/03/14 02:19:36;;;;;;;7.78;5.88;;;8.20;99.90;;;;;;4997307;28;20042;-82
2022/03/14 02:22:04;;;;;;;8.10;6.30;;;8.20;99.90;;;;;;4996759;28;20495;-81
2022/03/14 02:24:29;;;;;;;6.00;5.40;;;8.20;99.90;;;;;;4995602;28;20046;-82
2022/03/14 02:26:56;;;;;;;6.80;4.93;;;8.70;99.90;;;;;;4973489;28;20057;-82
2022/03/14 02:29:22;;;;;;;7.20;5.70;;;8.20;99.90;;;;;;5000652;28;22366;-81
2022/03/14 02:31:48;;;;;;;7.95;5.55;;;8.20;99.90;;;;;;5005867;28;20057;-82
2022/03/14 02:34:14;;;;;;;6.50;5.78;;;8.20;99.90;;;;;;5000256;28;20046;-82
2022/03/14 02:36:40;;;;;;;5.80;5.00;;;8.20;99.90;;;;;;5012739;28;20361;-81
2022/03/14 02:39:09;;;;;;;5.70;4.70;;;8.20;99.90;;;;;;4997922;28;20057;-82
2022/03/14 02:41:36;;;;;;;6.32;5.22;;;8.20;99.90;;;;;;5000732;28;20571;-82
2022/03/14 02:44:07;;;;;;;7.20;5.35;;;8.20;99.90;;;;;;4997731;28;20046;-82
2022/03/14 02:46:37;;;;;;;5.63;4.45;;;8.20;99.90;;;;;;4995160;28;20038;-82
2022/03/14 02:49:07;;;;;;;6.10;4.75;;;8.20;99.90;;;;;;4985157;28;20050;-81
2022/03/14 02:51:38;;;;;;;6.85;4.60;;;8.20;99.90;;;;;;5014029;28;20057;-82
2022/03/14 02:54:05;;;;;;;6.10;4.93;;;8.20;99.90;;;;;;4982294;28;20415;-82
2022/03/14 02:56:34;;;;;;;5.78;4.78;;;8.20;99.90;;;;;;5013390;28;20054;-81
2022/03/14 02:59:01;;;;;;;6.78;5.00;;;8.20;99.90;;;;;;5014888;28;20034;-82
2022/03/14 03:01:27;;;;;;;6.25;4.53;;;8.40;99.90;;;;;;5013067;28;20058;-82
2022/03/14 03:03:53;;;;;;;7.40;5.32;;;8.20;99.90;;;;;;4994672;28;20078;-82
2022/03/14 03:06:23;;;;;;;5.68;4.78;;;8.20;99.90;;;;;;4984593;28;20137;-82
2022/03/14 03:08:50;;;;;;;6.25;4.60;;;8.20;99.90;;;;;;4989386;28;20046;-82
2022/03/14 03:11:16;;;;;;;5.88;4.88;;;8.20;99.90;;;;;;4996438;28;20069;-83
2022/03/14 03:13:42;;;;;;;6.28;5.22;;;8.20;99.90;;;;;;4997707;28;20520;-82
2022/03/14 03:16:13;;;;;;;6.72;4.57;;;8.20;99.90;;;;;;4994308;28;20104;-82
2022/03/14 03:18:39;;;;;;;5.78;4.75;;;8.20;99.90;;;;;;4993682;28;20046;-82
2022/03/14 03:21:05;;;;;;;5.93;3.95;;;8.20;99.90;;;;;;5012424;28;20132;-82
2022/03/14 03:23:33;;;;;;;5.50;4.22;;;8.90;99.90;;;;;;4994653;28;20101;-81
2022/03/14 03:25:59;;;;;;;5.53;4.45;;;7.00;99.90;;;;;;5001387;28;20065;-81
2022/03/14 03:28:25;;;;;;;5.88;4.90;;;8.20;99.90;;;;;;4993813;28;20050;-82
2022/03/14 03:30:52;;;;;;;7.53;4.72;;;8.20;99.90;;;;;;4995943;28;20393;-82
2022/03/14 03:33:18;;;;;;;5.65;4.55;;;8.20;99.90;;;;;;4995262;28;20133;-82
2022/03/14 03:35:46;;;;;;;5.93;4.97;;;8.20;99.90;;;;;;4982363;28;20038;-82
2022/03/14 03:38:13;;;;;;;6.00;4.80;;;8.40;99.90;;;;;;4994256;28;20492;-82
2022/03/14 03:40:39;;;;;;;5.70;4.57;;;8.10;99.90;;;;;;5015494;28;20542;-81
2022/03/14 03:43:04;;;;;;;5.38;4.45;;;8.10;99.90;;;;;;4997581;28;20053;-81
2022/03/14 03:45:30;;;;;;;6.32;4.45;;;8.10;99.90;;;;;;4981619;28;20077;-81
2022/03/14 03:47:56;;;;;;;5.30;4.00;;;8.20;99.90;;;;;;4995084;28;20044;-84
2022/03/14 03:50:22;;;;;;;5.53;4.18;;;8.20;99.90;;;;;;4982264;28;20041;-84
2022/03/14 03:52:48;;;;;;;5.43;4.20;;;8.20;99.90;;;;;;4998023;28;20533;-84
2022/03/14 03:55:13;;;;;;;6.90;4.40;;;8.20;99.90;;;;;;4997313;28;20042;-83
2022/03/14 03:57:39;;;;;;;5.10;4.22;;;9.10;99.90;;;;;;4970678;28;20045;-83
2022/03/14 04:00:07;;;;;;;5.30;4.25;;;8.10;99.90;;;;;;4982018;28;20719;-82
2022/03/14 04:02:38;;;;;;;5.65;4.38;;;8.10;99.90;;;;;;4999996;28;20053;-83
2022/03/14 04:05:05;;;;;;;5.00;4.07;;;8.10;99.90;;;;;;4983952;28;20531;-84
2022/03/14 04:07:32;;;;;;;5.40;4.60;;;8.10;99.90;;;;;;4993481;28;20065;-84
2022/03/14 04:09:59;;;;;;;4.65;3.80;;;8.10;99.90;;;;;;4985213;28;20049;-83
2022/03/14 04:12:26;;;;;;;5.65;4.57;;;7.90;99.90;;;;;;4997350;28;20499;-85
2022/03/14 04:14:54;;;;;;;4.90;3.88;;;8.10;99.90;;;;;;4997551;28;20095;-84
2022/03/14 04:17:20;;;;;;;6.00;4.07;;;8.00;99.90;;;;;;4994420;28;20578;-84
2022/03/14 04:19:48;;;;;;;6.47;4.43;;;7.10;99.90;;;;;;4996753;28;20046;-83
2022/03/14 04:22:15;;;;;;;5.53;4.30;;;8.00;99.90;;;;;;5014373;28;20050;-83
2022/03/14 04:24:41;;;;;;;5.18;3.85;;;7.30;99.90;;;;;;4995325;28;20049;-83
2022/03/14 04:27:08;;;;;;;4.65;3.63;;;7.70;99.90;;;;;;4997025;28;20054;-81
2022/03/14 04:29:34;;;;;;;5.22;3.90;;;8.00;99.90;;;;;;4998791;28;20038;-80
2022/03/14 04:32:00;;;;;;;5.38;3.97;;;7.90;99.90;;;;;;4997054;28;20042;-81
2022/03/14 04:34:26;;;;;;;4.25;3.20;;;7.90;99.90;;;;;;4999193;28;20581;-81
2022/03/14 04:36:51;;;;;;;3.92;3.13;;;8.00;99.90;;;;;;4994278;28;20775;-80
2022/03/14 04:39:18;;;;;;;5.22;3.10;;;8.00;99.90;;;;;;4982399;28;20057;-81
2022/03/14 04:41:44;;;;;;;4.53;3.42;;;8.00;99.90;;;;;;4984326;28;20073;-83
2022/03/14 04:44:10;;;;;;;4.32;3.50;;;8.10;99.90;;;;;;4998880;28;20500;-82
2022/03/14 04:46:36;;;;;;;4.05;3.10;;;8.60;99.90;;;;;;4970886;28;20053;-82
2022/03/14 04:49:08;;;;;;;4.60;3.05;;;8.10;99.90;;;;;;4993756;28;20049;-81
2022/03/14 04:51:34;;;;;;;4.03;2.90;;;8.20;99.90;;;;;;4995391;28;20050;-82
2022/03/14 04:54:00;;;;;;;4.07;2.80;;;8.20;99.90;;;;;;4998572;28;20073;-81
2022/03/14 04:56:27;;;;;;;4.30;2.80;;;8.30;99.90;;;;;;4987628;28;20079;-81
2022/03/14 04:58:53;;;;;;;3.58;2.80;;;8.30;99.90;;;;;;4964725;28;20511;-82
2022/03/14 05:01:25;;;;;;;4.10;3.05;;;7.10;99.90;;;;;;4994840;28;20139;-82
2022/03/14 05:03:52;;;;;;;4.15;2.78;;;8.30;99.90;;;;;;4993029;28;20065;-82
2022/03/14 05:06:18;;;;;;;4.03;3.10;;;8.30;99.90;;;;;;4986819;28;20062;-82
2022/03/14 05:08:45;;;;;;;3.90;3.13;;;8.30;99.90;;;;;;4969600;28;20057;-82
2022/03/14 05:11:11;;;;;;;3.85;3.03;;;8.30;99.90;;;;;;4965086;28;22369;-83
2022/03/14 05:13:38;;;;;;;3.78;3.13;;;7.50;99.90;;;;;;4986793;28;20046;-81
2022/03/14 05:16:04;;;;;;;4.22;3.22;;;9.00;99.90;;;;;;4996130;28;20045;-82
2022/03/14 05:18:30;;;;;;;4.13;2.90;;;8.30;99.90;;;;;;4992745;28;20049;-82
2022/03/14 05:20:56;;;;;;;4.20;3.40;;;8.30;99.90;;;;;;4993153;28;20475;-81
2022/03/14 05:23:24;;;;;;;4.82;3.05;;;8.30;99.90;;;;;;4987444;28;20548;-81
2022/03/14 05:25:50;;;;;;;4.13;2.95;;;8.50;99.90;;;;;;4997899;28;20297;-82
2022/03/14 05:28:16;;;;;;;4.57;3.08;;;8.30;99.90;;;;;;4993292;28;20042;-82
2022/03/14 05:30:41;;;;;;;4.65;3.10;;;8.30;99.90;;;;;;4961524;28;20061;-82
2022/03/14 05:33:07;;;;;;;5.30;2.85;;;8.30;99.90;;;;;;4986150;28;20054;-81
2022/03/14 05:35:33;;;;;;;3.80;2.75;;;8.30;99.90;;;;;;4994326;28;20646;-82
2022/03/14 05:37:59;;;;;;;4.78;3.00;;;8.30;99.90;;;;;;4998862;28;20137;-82
2022/03/14 05:40:25;;;;;;;3.95;2.72;;;8.30;99.90;;;;;;4975375;28;20133;-82
2022/03/14 05:42:51;;;;;;;3.83;2.83;;;8.30;99.90;;;;;;5008198;28;20089;-81
2022/03/14 05:45:18;;;;;;;4.72;2.90;;;8.30;99.90;;;;;;4981356;28;20205;-82
2022/03/14 05:47:46;;;;;;;4.18;3.08;;;8.40;99.90;;;;;;5010348;28;20038;-82
2022/03/14 05:50:12;;;;;;;4.18;3.10;;;8.30;99.90;;;;;;4986336;28;20982;-83
2022/03/14 05:52:39;;;;;;;4.18;3.00;;;8.30;99.90;;;;;;4996914;28;20452;-82
2022/03/14 05:55:06;;;;;;;4.57;3.03;;;8.40;99.90;;;;;;4977987;28;20483;-81
2022/03/14 05:57:35;;;;;;;4.35;3.10;;;8.40;99.90;;;;;;4993014;28;20119;-80
2022/03/14 06:00:03;;;;;;;4.57;3.28;;;8.50;99.90;;;;;;4994090;28;20046;-81
2022/03/14 06:02:28;;;;;;;4.57;3.40;;;8.50;99.90;;;;;;4999641;28;20399;-80
2022/03/14 06:04:55;;;;;;;4.30;3.15;;;8.50;99.90;;;;;;4986468;28;20030;-81
2022/03/14 06:07:22;;;;;;;4.75;3.10;;;8.60;99.90;;;;;;4993234;28;20046;-81
2022/03/14 06:09:49;;;;;;;4.38;3.17;;;8.60;99.90;;;;;;4994292;28;20101;-81
2022/03/14 06:12:29;;;;;;;4.22;3.03;;;8.50;99.90;;;;;;4993639;28;20050;-80
2022/03/14 06:14:57;;;;;;;4.20;3.00;;;8.60;99.90;;;;;;4994206;28;20046;-80
2022/03/14 06:17:23;;;;;;;4.85;3.03;;;8.60;99.90;;;;;;5000019;28;20398;-81
2022/03/14 06:19:49;;;;;;;5.88;3.40;;;8.60;99.90;;;;;;4978880;28;20503;-81
2022/03/14 06:22:19;;;;;;;4.10;2.90;;;8.60;99.90;;;;;;4995717;28;20129;-80
2022/03/14 06:24:47;;;;;;;5.15;3.92;;;8.60;99.90;;;;;;4981499;28;20042;-80
2022/03/14 06:27:24;;;;;;;6.05;4.32;;;8.60;99.90;;;;;;4992787;28;20054;-82
2022/03/14 06:29:49;;;;;;;5.32;4.20;;;8.60;99.90;;;;;;4986518;28;20061;-82
2022/03/14 06:32:15;;;;;;;4.78;4.00;;;8.80;99.90;;;;;;4979213;28;20062;-81
2022/03/14 06:34:42;;;;;;;6.15;5.30;;;8.70;99.90;;;;;;4982675;28;20519;-82
2022/03/14 06:37:08;;;;;;;7.97;6.22;;;8.70;99.90;;;;;;4995480;28;20439;-80
2022/03/14 06:39:36;;;;;;;7.93;6.30;;;8.70;99.90;;;;;;4994205;28;20056;-80
2022/03/14 06:42:09;;;;;;;8.20;6.40;;;8.70;99.90;;;;;;5007841;28;20054;-80
2022/03/14 06:44:43;;;;;;;7.88;6.22;;;8.70;99.90;;;;;;4977134;28;20163;-79
2022/03/14 06:47:11;;;;;;;8.98;5.60;;;8.70;99.90;;;;;;4993298;28;20049;-80
2022/03/14 06:49:37;;;;;;;7.38;6.07;;;8.70;99.90;;;;;;4985445;28;20060;-80
2022/03/14 06:52:06;;;;;;;6.93;5.47;;;8.70;99.90;;;;;;5006757;28;20140;-80
2022/03/14 06:54:32;;;;;;;8.07;5.82;;;8.70;99.90;;;;;;4997165;28;20057;-80
2022/03/14 06:56:58;;;;;;;6.45;5.03;;;8.70;99.90;;;;;;4979582;28;20034;-80
2022/03/14 06:59:24;;;;;;;6.80;5.43;;;8.70;99.90;;;;;;4984357;28;20050;-84
2022/03/14 07:01:53;;;;;;;7.57;5.93;;;8.70;99.90;;;;;;4984488;28;20038;-82
2022/03/14 07:04:22;;;;;;;6.10;5.28;;;7.70;99.90;;;;;;5013810;28;20065;-83
2022/03/14 07:06:48;;;;;;;6.95;5.65;;;8.80;99.90;;;;;;4980857;28;20068;-80
2022/03/14 07:09:14;;;;;;;7.43;6.25;;;8.70;99.90;;;;;;4984894;28;20045;-80
2022/03/14 07:11:40;;;;;;;9.40;8.18;;;8.80;99.90;;;;;;4985117;28;20125;-81
2022/03/14 07:14:07;;;;;;;9.52;8.30;;;8.00;99.90;;;;;;4992882;28;20231;-80
2022/03/14 07:16:32;;;;;;;13.10;10.60;;;8.80;99.90;;;;;;4985497;28;20058;-80
2022/03/14 07:18:58;;;;;;;19.00;14.10;;;8.80;99.90;;;;;;4984609;28;20393;-79
2022/03/14 07:21:28;;;;;;;19.88;15.02;;;8.80;99.90;;;;;;4991310;28;20533;-80
2022/03/14 07:23:57;;;;;;;19.30;15.65;;;8.90;99.90;;;;;;4974347;28;20145;-80
2022/03/14 07:26:24;;;;;;;22.10;17.02;;;8.80;99.90;;;;;;4991012;28;20081;-80
2022/03/14 07:28:49;;;;;;;25.27;18.55;;;8.80;99.90;;;;;;5000374;28;20054;-80
2022/03/14 07:31:20;;;;;;;24.73;19.42;;;8.90;99.90;;;;;;4995638;28;20086;-80
2022/03/14 07:33:48;;;;;;;23.95;18.25;;;8.80;99.90;;;;;;5011596;28;20050;-80
2022/03/14 07:36:14;;;;;;;25.75;20.13;;;8.80;99.90;;;;;;4989435;28;20050;-79
2022/03/14 07:38:40;;;;;;;26.92;20.15;;;8.80;99.90;;;;;;4996221;28;20046;-79
2022/03/14 07:41:06;;;;;;;25.83;19.02;;;8.80;99.90;;;;;;4983178;28;20049;-80
2022/03/14 07:43:32;;;;;;;27.88;19.75;;;8.70;99.90;;;;;;4996215;28;20038;-80
2022/03/14 07:45:58;;;;;;;26.45;19.05;;;8.70;99.90;;;;;;4996606;28;20565;-80
2022/03/14 07:48:23;;;;;;;28.75;20.17;;;8.70;99.90;;;;;;4995080;28;20046;-80
2022/03/14 07:50:49;;;;;;;35.03;22.55;;;8.60;99.90;;;;;;5006978;28;20043;-80
2022/03/14 07:53:15;;;;;;;39.78;23.02;;;8.60;99.90;;;;;;4966013;28;20562;-80
2022/03/14 07:55:41;;;;;;;36.67;22.17;;;8.60;99.90;;;;;;4984164;28;20058;-80
2022/03/14 07:58:06;;;;;;;39.03;23.98;;;8.60;99.90;;;;;;5000154;28;20399;-79
2022/03/14 08:00:32;;;;;;;40.85;23.80;;;8.60;99.90;;;;;;4975196;28;20053;-80
2022/03/14 08:02:58;;;;;;;41.55;24.08;;;8.50;99.90;;;;;;4984259;28;20429;-79
2022/03/14 08:05:26;;;;;;;37.90;22.50;;;8.60;99.90;;;;;;4982204;28;20550;-84
2022/03/14 08:07:53;;;;;;;39.25;23.02;;;8.50;99.90;;;;;;4999654;28;20057;-80
2022/03/14 08:10:20;;;;;;;39.33;23.27;;;8.50;99.90;;;;;;4982866;28;20060;-78
2022/03/14 08:12:50;;;;;;;40.65;23.45;;;9.00;99.90;;;;;;5015657;28;20061;-80
2022/03/14 08:15:30;;;;;;;41.28;23.88;;;8.40;99.90;;;;;;5009783;28;20370;-79
2022/03/14 08:18:00;;;;;;;41.47;24.13;;;8.40;99.90;;;;;;4996227;28;20519;-79
2022/03/14 08:20:27;;;;;;;42.97;22.70;;;8.40;99.90;;;;;;4986918;28;20049;-79
2022/03/14 08:22:55;;;;;;;39.03;22.67;;;8.40;99.90;;;;;;4988968;28;20057;-80
2022/03/14 08:25:22;;;;;;;41.60;23.00;;;8.30;99.90;;;;;;5016171;28;20133;-80
2022/03/14 08:27:48;;;;;;;38.00;20.73;;;8.30;99.90;;;;;;4998892;28;20045;-80
2022/03/14 08:30:14;;;;;;;40.03;21.42;;;8.30;99.90;;;;;;4983848;28;20057;-79
2022/03/14 08:32:40;;;;;;;37.08;20.55;;;8.30;99.90;;;;;;4982669;28;20567;-79
2022/03/14 08:35:10;;;;;;;38.42;19.40;;;8.30;99.90;;;;;;5014581;28;20046;-79
2022/03/14 08:37:41;;;;;;;38.58;20.17;;;8.30;99.90;;;;;;4998758;28;20133;-80
2022/03/14 08:40:09;;;;;;;33.92;17.88;;;8.30;99.90;;;;;;5007111;28;20048;-80
2022/03/14 08:42:36;;;;;;;33.92;18.55;;;8.30;99.90;;;;;;5000292;28;20105;-81
2022/03/14 08:45:02;;;;;;;30.40;16.90;;;8.30;99.90;;;;;;4995388;28;20495;-85
2022/03/14 08:47:28;;;;;;;27.48;15.98;;;8.30;99.90;;;;;;4996688;28;20049;-85
2022/03/14 08:49:54;;;;;;;26.08;13.57;;;8.30;99.90;;;;;;4997737;28;20096;-86
2022/03/14 08:52:20;;;;;;;26.83;13.23;;;8.30;99.90;;;;;;4997547;28;20053;-82
2022/03/14 08:54:45;;;;;;;22.20;12.07;;;8.30;99.90;;;;;;5015914;28;20057;-82
2022/03/14 08:57:11;;;;;;;22.15;12.20;;;8.30;99.90;;;;;;4982875;28;20185;-82
2022/03/14 08:59:37;;;;;;;23.13;12.25;;;8.30;99.90;;;;;;4958942;28;20046;-81
2022/03/14 09:02:03;;;;;;;21.58;11.15;;;8.40;99.90;;;;;;4982866;28;20050;-81
2022/03/14 09:04:29;;;;;;;19.52;11.35;;;8.30;99.90;;;;;;4983528;28;20136;-82
2022/03/14 09:06:55;;;;;;;19.27;10.43;;;8.40;99.90;;;;;;4982717;28;20081;-82
2022/03/14 09:09:21;;;;;;;18.13;10.13;;;8.40;99.90;;;;;;4983074;28;20050;-82
2022/03/14 09:11:46;;;;;;;23.17;9.95;;;8.40;99.90;;;;;;4997886;28;20050;-82
2022/03/14 09:14:12;;;;;;;18.33;9.70;;;8.40;99.90;;;;;;4981704;28;20057;-81
2022/03/14 09:16:38;;;;;;;16.73;9.88;;;8.50;99.90;;;;;;4998106;28;20141;-81
2022/03/14 09:19:04;;;;;;;15.80;9.15;;;8.50;99.90;;;;;;4973229;28;20054;-81
2022/03/14 09:21:32;;;;;;;16.77;9.45;;;8.50;99.90;;;;;;4996307;28;20420;-81
2022/03/14 09:23:58;;;;;;;21.70;9.35;;;8.60;99.90;;;;;;4996046;28;20050;-82
2022/03/14 09:26:24;;;;;;;17.40;8.85;;;8.70;99.90;;;;;;4997287;28;20136;-81
2022/03/14 09:28:50;;;;;;;16.10;7.68;;;8.70;99.90;;;;;;4999643;28;20100;-81
2022/03/14 09:31:16;;;;;;;13.25;6.57;;;8.80;99.90;;;;;;4964098;28;20990;-78
2022/03/14 09:33:43;;;;;;;10.98;5.10;;;8.80;99.90;;;;;;4999372;28;20045;-78
2022/03/14 09:36:09;;;;;;;13.48;5.10;;;8.80;99.90;;;;;;4999089;28;20400;-79
2022/03/14 09:38:37;;;;;;;10.40;4.53;;;8.90;99.90;;;;;;4982567;28;20513;-79
2022/03/14 09:41:08;;;;;;;9.40;4.70;;;8.90;99.90;;;;;;4997665;28;20061;-82
2022/03/14 09:43:39;;;;;;;12.00;5.15;;;8.90;99.90;;;;;;4983318;28;20050;-79
2022/03/14 09:46:09;;;;;;;9.57;4.57;;;8.90;99.90;;;;;;4996370;28;20118;-78
2022/03/14 09:48:40;;;;;;;12.48;4.55;;;9.00;99.90;;;;;;5005895;28;20120;-78
2022/03/14 09:51:07;;;;;;;14.13;5.05;;;9.10;99.90;;;;;;5005359;28;20049;-81
2022/03/14 09:53:39;;;;;;;10.25;5.05;;;9.10;99.90;;;;;;4999280;28;20042;-79
2022/03/14 09:56:27;;;;;;;9.55;4.43;;;9.10;99.90;;;;;;4999984;28;20123;-81
2022/03/14 09:59:12;;;;;;;14.02;4.63;;;9.20;99.90;;;;;;4984920;28;20539;-81
2022/03/14 10:01:39;;;;;;;12.02;4.10;;;9.20;99.90;;;;;;4999291;28;20049;-82
2022/03/14 10:04:05;;;;;;;10.18;3.72;;;8.40;99.90;;;;;;4998190;28;20494;-81
2022/03/14 10:06:31;;;;;;;13.57;4.00;;;9.30;99.90;;;;;;4997930;28;20599;-81
2022/03/14 10:08:57;;;;;;;8.40;4.10;;;9.30;99.90;;;;;;4982365;28;20535;-81
2022/03/14 10:11:23;;;;;;;9.68;4.63;;;9.50;99.90;;;;;;4994643;28;20073;-80
2022/03/14 10:13:49;;;;;;;10.93;4.30;;;9.50;99.90;;;;;;4982536;28;20124;-79
2022/03/14 10:16:16;;;;;;;15.00;4.43;;;9.60;99.90;;;;;;4999160;28;20050;-80
2022/03/14 10:18:54;;;;;;;10.02;5.45;;;9.60;99.90;;;;;;4980820;28;20450;-80
2022/03/14 10:21:31;;;;;;;12.65;5.72;;;9.70;99.90;;;;;;4995426;28;20087;-80
2022/03/14 10:24:00;;;;;;;9.73;5.43;;;9.70;99.90;;;;;;4996893;28;20081;-78
2022/03/14 10:26:27;;;;;;;13.52;5.75;;;9.70;99.90;;;;;;4984683;28;20049;-80
2022/03/14 10:28:57;;;;;;;14.85;6.43;;;9.80;99.90;;;;;;4999500;28;20153;-79
2022/03/14 10:31:28;;;;;;;12.77;6.20;;;9.90;99.90;;;;;;4969634;28;20110;-77
2022/03/14 10:34:04;;;;;;;15.25;7.03;;;9.90;99.90;;;;;;4999079;28;20137;-82
2022/03/14 10:36:49;;;;;;;14.43;6.65;;;9.90;99.90;;;;;;4998650;28;20046;-79
2022/03/14 10:39:17;;;;;;;12.43;6.18;;;9.90;99.90;;;;;;4997587;28;20061;-78
2022/03/14 10:41:46;;;;;;;13.85;7.30;;;9.80;99.90;;;;;;5016786;28;20125;-80
2022/03/14 10:44:23;;;;;;;16.25;7.68;;;9.80;99.90;;;;;;4995377;28;20039;-79
2022/03/14 10:46:49;;;;;;;16.10;7.68;;;9.90;99.90;;;;;;4997977;28;20052;-78
2022/03/14 10:49:16;;;;;;;13.27;8.05;;;10.00;99.90;;;;;;4997459;28;20050;-78
2022/03/14 10:51:57;;;;;;;16.52;7.88;;;9.90;99.90;;;;;;5001399;28;20420;-79
2022/03/14 10:54:24;;;;;;;16.80;8.98;;;9.90;99.90;;;;;;5014552;28;20046;-79
2022/03/14 10:57:03;;;;;;;15.18;8.68;;;9.90;99.90;;;;;;4994584;28;20538;-78
2022/03/14 10:59:38;;;;;;;16.35;8.55;;;9.90;99.90;;;;;;4996529;28;20049;-79
2022/03/14 11:02:07;;;;;;;17.10;8.20;;;9.90;99.90;;;;;;4990568;28;20395;-79
2022/03/14 11:04:41;;;;;;;17.20;8.30;;;9.90;99.90;;;;;;4998299;28;20073;-78
2022/03/14 11:07:07;;;;;;;16.17;8.43;;;9.90;99.90;;;;;;4983956;28;20506;-78
2022/03/14 11:09:53;;;;;;;13.45;7.60;;;10.00;99.90;;;;;;4995984;28;20084;-81
2022/03/14 11:12:21;;;;;;;13.85;7.97;;;10.00;99.90;;;;;;5005790;28;20097;-84
2022/03/14 11:14:52;;;;;;;15.30;7.47;;;10.10;99.90;;;;;;4992154;28;20058;-80
2022/03/14 11:17:22;;;;;;;17.45;8.00;;;10.10;99.90;;;;;;4984555;28;20057;-79
2022/03/14 11:19:49;;;;;;;15.50;7.80;;;10.20;99.90;;;;;;4997721;28;20077;-79
2022/03/14 11:22:17;;;;;;;16.55;7.53;;;10.20;99.90;;;;;;4997827;28;20049;-79
2022/03/14 11:24:54;;;;;;;20.45;8.70;;;10.20;99.90;;;;;;4997617;28;20053;-79
2022/03/14 11:27:21;;;;;;;15.77;8.00;;;10.30;99.90;;;;;;4984595;28;20125;-80
2022/03/14 11:29:49;;;;;;;12.32;6.95;;;10.40;99.90;;;;;;5014649;28;20081;-80
2022/03/14 11:32:16;;;;;;;14.02;7.32;;;10.40;99.90;;;;;;4999492;28;20053;-82
2022/03/14 11:34:45;;;;;;;15.32;7.47;;;10.40;99.90;;;;;;4997790;28;20054;-81
2022/03/14 11:37:12;;;;;;;12.73;7.13;;;10.50;99.90;;;;;;4999065;28;20172;-79
2022/03/14 11:39:39;;;;;;;14.93;7.20;;;10.50;99.90;;;;;;4999568;28;20049;-78
2022/03/14 11:42:05;;;;;;;18.80;8.20;;;10.60;99.90;;;;;;4999984;28;20042;-79
2022/03/14 11:44:31;;;;;;;13.93;7.50;;;10.50;99.90;;;;;;4999705;28;20053;-78
2022/03/14 11:46:58;;;;;;;17.10;7.95;;;10.50;99.90;;;;;;5013132;28;20041;-78
2022/03/14 11:49:27;;;;;;;19.15;8.00;;;10.50;99.90;;;;;;4982957;28;20050;-79
2022/03/14 11:52:19;;;;;;;15.30;7.80;;;10.50;99.90;;;;;;4997435;28;20050;-79
2022/03/14 11:54:50;;;;;;;16.02;7.68;;;10.50;99.90;;;;;;5001473;28;20440;-79
2022/03/14 11:57:34;;;;;;;19.60;7.90;;;10.60;99.90;;;;;;4995965;28;20034;-79
2022/03/14 12:00:22;;;;;;;16.00;7.97;;;10.70;99.90;;;;;;5000502;28;20975;-80
2022/03/14 12:02:53;;;;;;;14.77;7.10;;;10.70;99.90;;;;;;5014615;28;20571;-80
2022/03/14 12:05:42;;;;;;;16.75;8.25;;;10.80;99.90;;;;;;5000210;28;20064;-80
2022/03/14 12:08:12;;;;;;;17.73;7.60;;;10.90;99.90;;;;;;4993134;28;20073;-81
2022/03/14 12:10:37;;;;;;;12.45;6.97;;;10.90;99.90;;;;;;4998870;28;20054;-81
2022/03/14 12:13:03;;;;;;;19.02;7.15;;;11.00;99.90;;;;;;5000996;28;20518;-79
2022/03/14 12:15:48;;;;;;;10.52;6.60;;;11.10;99.90;;;;;;4983985;28;20050;-79
2022/03/14 12:18:23;;;;;;;17.42;6.57;;;11.10;99.90;;;;;;4999003;28;20039;-80
2022/03/14 12:21:01;;;;;;;10.90;6.57;;;11.30;99.90;;;;;;4999586;28;20086;-80
2022/03/14 12:23:29;;;;;;;12.00;5.90;;;11.40;99.90;;;;;;4999646;28;20046;-79
2022/03/14 12:25:57;;;;;;;11.57;5.82;;;11.50;99.90;;;;;;4998740;28;20128;-79
2022/03/14 12:28:24;;;;;;;12.43;6.03;;;11.50;99.90;;;;;;4996528;28;20050;-80
2022/03/14 12:30:50;;;;;;;13.48;6.20;;;11.40;99.90;;;;;;4996507;28;20464;-80
2022/03/14 12:33:34;;;;;;;10.52;5.82;;;11.40;99.90;;;;;;4980663;28;20058;-79
2022/03/14 12:36:24;;;;;;;14.75;5.80;;;11.50;99.90;;;;;;4999800;28;20105;-79
2022/03/14 12:39:20;;;;;;;13.52;5.95;;;11.50;99.90;;;;;;4998479;28;20438;-80
2022/03/14 12:41:46;;;;;;;16.10;5.45;;;11.40;99.90;;;;;;4997530;28;20438;-80
2022/03/14 12:44:19;;;;;;;12.93;5.38;;;11.60;99.90;;;;;;4967298;28;20403;-80
2022/03/14 12:46:47;;;;;;;11.77;5.97;;;11.70;99.90;;;;;;4983205;28;20050;-80
2022/03/14 12:49:26;;;;;;;15.30;6.00;;;11.90;99.90;;;;;;4999443;28;20054;-80
2022/03/14 12:52:18;;;;;;;9.30;4.60;;;12.20;99.90;;;;;;4999479;28;20050;-83
2022/03/14 12:54:46;;;;;;;12.73;4.78;;;12.70;99.90;;;;;;4998931;28;20137;-83
2022/03/14 12:57:21;;;;;;;11.60;4.47;;;12.70;99.90;;;;;;4998423;28;20458;-88